Time;durP1;ratioP1;P1;durP2;ratioP2;P2;SDS_P1;SDS_P2;PMS_P1;PMS_P2;Temp;Humidity;BMP_temperature;BMP_pressure;BME280_temperature;BME280_humidity;BME280_pressure;Samples;Min_cycle;Max_cycle;Signal;HPM_P1;HPM_P2
2023/05/02 00:01:23;;;;;;;17.40;8.07;;;;;;;;;;5011161;28;20531;-70
2023/05/02 00:03:50;;;;;;;21.37;10.13;;;;;;;;;;5007922;28;20613;-70
2023/05/02 00:06:17;;;;;;;19.13;9.73;;;;;;;;;;5011570;28;20195;-70
2023/05/02 00:08:44;;;;;;;21.53;11.03;;;;;;;;;;5011022;28;20278;-70
2023/05/02 00:11:13;;;;;;;23.67;11.73;;;;;;;;;;5013310;28;20222;-70
2023/05/02 00:13:40;;;;;;;26.53;13.03;;;;;;;;;;5011042;28;20207;-70
2023/05/02 00:16:06;;;;;;;25.67;12.87;;;;;;;;;;5017756;28;20345;-70
2023/05/02 00:18:33;;;;;;;20.50;11.20;;;;;;;;;;5032856;28;20797;-70
2023/05/02 00:21:00;;;;;;;22.83;11.37;;;;;;;;;;5032656;28;20233;-70
2023/05/02 00:23:26;;;;;;;24.63;12.10;;;;;;;;;;5031455;28;20983;-70
2023/05/02 00:25:53;;;;;;;23.03;11.67;;;;;;;;;;5032060;28;20278;-70
2023/05/02 00:28:21;;;;;;;20.03;9.97;;;;;;;;;;5032080;28;21058;-70
2023/05/02 00:30:47;;;;;;;20.30;10.63;;;;;;;;;;5031348;28;20646;-70
2023/05/02 00:33:14;;;;;;;21.33;10.40;;;;;;;;;;5027615;28;20180;-70
2023/05/02 00:35:41;;;;;;;17.63;8.73;;;;;;;;;;5029887;28;20187;-70
2023/05/02 00:38:08;;;;;;;20.13;9.53;;;;;;;;;;5007865;28;20210;-70
2023/05/02 00:40:46;;;;;;;15.77;8.33;;;;;;;;;;5012700;28;20650;-70
2023/05/02 00:43:13;;;;;;;16.13;8.17;;;;;;;;;;4991482;28;20726;-70
2023/05/02 00:45:41;;;;;;;16.20;7.97;;;;;;;;;;5012160;28;20208;-70
2023/05/02 00:48:10;;;;;;;17.27;7.77;;;;;;;;;;4995726;28;20203;-70
2023/05/02 00:50:42;;;;;;;16.13;7.47;;;;;;;;;;5029136;28;20187;-70
2023/05/02 00:53:10;;;;;;;15.43;7.83;;;;;;;;;;5000737;28;20198;-70
2023/05/02 00:55:36;;;;;;;15.90;7.30;;;;;;;;;;5026579;28;20192;-70
2023/05/02 00:58:04;;;;;;;14.10;7.17;;;;;;;;;;4995414;28;20195;-70
2023/05/02 01:00:40;;;;;;;14.90;6.93;;;;;;;;;;5010914;28;20196;-70
2023/05/02 01:03:36;;;;;;;15.30;6.77;;;;;;;;;;4996236;28;20659;-70
2023/05/02 01:06:10;;;;;;;10.40;5.77;;;;;;;;;;4947179;28;21043;-70
2023/05/02 01:08:45;;;;;;;14.13;7.10;;;;;;;;;;4996597;28;20192;-70
2023/05/02 01:11:17;;;;;;;13.00;6.43;;;;;;;;;;5009532;28;20195;-70
2023/05/02 01:13:44;;;;;;;13.03;6.70;;;;;;;;;;5006103;28;20202;-70
2023/05/02 01:16:11;;;;;;;13.83;6.77;;;;;;;;;;5007204;28;20247;-70
2023/05/02 01:18:39;;;;;;;15.00;6.60;;;;;;;;;;4979532;28;20190;-70
2023/05/02 01:21:06;;;;;;;13.60;7.10;;;;;;;;;;5008162;28;20863;-70
2023/05/02 01:23:38;;;;;;;12.07;6.53;;;;;;;;;;5011817;28;20196;-70
2023/05/02 01:26:20;;;;;;;13.77;6.57;;;;;;;;;;5027096;28;20188;-70
2023/05/02 01:28:47;;;;;;;10.63;6.00;;;;;;;;;;5028500;28;20278;-70
2023/05/02 01:31:14;;;;;;;9.90;5.83;;;;;;;;;;5011501;28;20195;-70
2023/05/02 01:33:41;;;;;;;10.83;5.67;;;;;;;;;;5009418;28;20206;-70
2023/05/02 01:36:08;;;;;;;13.07;6.00;;;;;;;;;;5028129;28;20542;-70
2023/05/02 01:38:36;;;;;;;11.60;6.27;;;;;;;;;;5007512;28;20179;-70
2023/05/02 01:41:05;;;;;;;10.80;5.70;;;;;;;;;;5026019;28;20226;-70
2023/05/02 02:18:31;;;;;;;16.20;8.30;;;;;;;;;;4833143;28;20307;-70
2023/05/02 02:20:59;;;;;;;12.37;6.43;;;;;;;;;;4994302;28;20574;-70
2023/05/02 02:23:27;;;;;;;13.27;6.87;;;;;;;;;;5010323;28;20298;-70
2023/05/02 02:25:53;;;;;;;13.53;7.20;;;;;;;;;;5003265;28;20243;-70
2023/05/02 02:28:21;;;;;;;11.63;6.70;;;;;;;;;;4990934;28;20188;-70
2023/05/02 02:30:47;;;;;;;11.10;6.87;;;;;;;;;;4990481;28;20199;-70
2023/05/02 02:33:14;;;;;;;15.77;6.07;;;;;;;;;;5002088;28;20187;-69
2023/05/02 02:35:41;;;;;;;16.97;7.13;;;;;;;;;;5010105;28;20195;-69
2023/05/02 02:38:24;;;;;;;14.33;7.13;;;;;;;;;;5007200;28;20194;-69
2023/05/02 02:40:55;;;;;;;12.40;7.00;;;;;;;;;;5010561;28;20281;-69
2023/05/02 02:43:21;;;;;;;14.33;6.73;;;;;;;;;;5026474;28;20191;-69
2023/05/02 02:46:21;;;;;;;12.50;6.37;;;;;;;;;;5027082;28;20211;-69
2023/05/02 02:49:00;;;;;;;14.47;6.60;;;;;;;;;;4973434;28;20219;-70
2023/05/02 02:51:52;;;;;;;11.17;6.23;;;;;;;;;;5008381;28;20223;-69
2023/05/02 02:54:30;;;;;;;11.93;6.60;;;;;;;;;;4992005;28;20187;-69
2023/05/02 02:57:23;;;;;;;17.53;6.73;;;;;;;;;;5026991;28;20524;-69
2023/05/02 02:59:57;;;;;;;32.80;9.37;;;;;;;;;;4993231;28;20282;-69
2023/05/02 03:02:28;;;;;;;17.00;7.27;;;;;;;;;;4991176;28;20669;-69
2023/05/02 03:04:55;;;;;;;15.53;6.83;;;;;;;;;;4992532;28;20222;-69
2023/05/02 03:07:22;;;;;;;15.13;6.37;;;;;;;;;;4993522;28;20215;-69
2023/05/02 03:09:49;;;;;;;9.93;6.00;;;;;;;;;;5010001;28;20199;-69
2023/05/02 03:12:20;;;;;;;17.53;6.63;;;;;;;;;;5009843;28;20196;-69
2023/05/02 03:14:48;;;;;;;16.37;6.60;;;;;;;;;;5010502;28;20295;-69
2023/05/02 03:17:16;;;;;;;18.60;7.00;;;;;;;;;;5006701;28;20250;-70
2023/05/02 03:19:42;;;;;;;14.23;6.63;;;;;;;;;;4989484;28;20192;-70
2023/05/02 03:22:10;;;;;;;13.07;6.97;;;;;;;;;;5008466;28;20339;-70
2023/05/02 03:24:37;;;;;;;15.07;6.70;;;;;;;;;;5027137;28;20608;-70
2023/05/02 03:27:06;;;;;;;18.87;7.30;;;;;;;;;;5009076;28;20199;-70
2023/05/02 03:29:39;;;;;;;11.80;6.93;;;;;;;;;;5008416;28;20203;-70
2023/05/02 03:32:07;;;;;;;13.77;6.83;;;;;;;;;;5025841;28;20203;-70
2023/05/02 03:34:36;;;;;;;16.80;7.03;;;;;;;;;;5009224;28;20195;-69
2023/05/02 03:37:03;;;;;;;15.80;7.00;;;;;;;;;;4993865;28;20198;-69
2023/05/02 03:39:30;;;;;;;13.17;6.40;;;;;;;;;;5000456;28;20249;-69
2023/05/02 03:41:57;;;;;;;13.43;6.77;;;;;;;;;;5009326;28;20245;-69
2023/05/02 03:44:24;;;;;;;11.70;6.57;;;;;;;;;;5026218;28;20233;-69
2023/05/02 03:46:51;;;;;;;14.63;7.07;;;;;;;;;;5010404;28;20287;-69
2023/05/02 03:49:19;;;;;;;11.23;6.57;;;;;;;;;;5026728;28;20195;-69
2023/05/02 03:51:48;;;;;;;15.80;7.13;;;;;;;;;;5008858;28;20217;-69
2023/05/02 03:54:20;;;;;;;13.83;6.43;;;;;;;;;;5008212;28;20188;-69
2023/05/02 03:56:46;;;;;;;15.47;7.50;;;;;;;;;;5010361;28;20199;-69
2023/05/02 03:59:20;;;;;;;13.07;6.60;;;;;;;;;;4993887;28;20195;-69
2023/05/02 04:01:49;;;;;;;15.47;7.27;;;;;;;;;;5026535;28;20195;-70
2023/05/02 04:04:18;;;;;;;11.43;6.90;;;;;;;;;;4992158;28;20609;-70
2023/05/02 04:06:48;;;;;;;10.17;6.50;;;;;;;;;;5003470;28;20250;-71
2023/05/02 04:09:15;;;;;;;12.93;6.60;;;;;;;;;;4987932;28;20223;-71
2023/05/02 04:11:52;;;;;;;11.23;6.70;;;;;;;;;;5007746;28;20203;-70
2023/05/02 04:14:20;;;;;;;13.33;6.50;;;;;;;;;;5009542;28;20294;-70
2023/05/02 04:16:49;;;;;;;12.63;6.60;;;;;;;;;;4994374;28;20231;-70
2023/05/02 04:19:21;;;;;;;11.73;6.77;;;;;;;;;;5008138;28;20227;-70
2023/05/02 04:21:48;;;;;;;12.23;6.57;;;;;;;;;;5010933;28;20198;-69
2023/05/02 04:24:15;;;;;;;13.50;6.63;;;;;;;;;;5007235;28;20254;-70
2023/05/02 04:26:46;;;;;;;9.83;6.40;;;;;;;;;;5025415;28;21130;-70
2023/05/02 04:29:14;;;;;;;10.87;6.73;;;;;;;;;;5008104;28;20200;-70
2023/05/02 04:31:42;;;;;;;13.90;7.00;;;;;;;;;;5028782;28;20515;-69
2023/05/02 04:34:13;;;;;;;10.90;6.53;;;;;;;;;;5009858;28;20203;-69
2023/05/02 04:36:44;;;;;;;15.47;7.03;;;;;;;;;;5010192;28;20214;-70
2023/05/02 04:39:15;;;;;;;21.07;7.70;;;;;;;;;;5009437;28;20200;-69
2023/05/02 04:41:52;;;;;;;19.90;6.63;;;;;;;;;;5010536;28;20673;-68
2023/05/02 04:44:21;;;;;;;15.10;7.23;;;;;;;;;;5010684;28;20621;-69
2023/05/02 04:46:49;;;;;;;18.50;7.70;;;;;;;;;;4984056;28;20287;-70
2023/05/02 04:49:17;;;;;;;16.13;6.33;;;;;;;;;;5008914;28;20203;-69
2023/05/02 04:51:44;;;;;;;16.37;6.77;;;;;;;;;;4992152;28;20226;-69
2023/05/02 04:54:12;;;;;;;16.00;6.90;;;;;;;;;;5009414;28;20191;-69
2023/05/02 04:56:41;;;;;;;11.50;6.53;;;;;;;;;;5009647;28;20272;-69
2023/05/02 04:59:10;;;;;;;19.07;7.20;;;;;;;;;;5005960;28;20203;-70
2023/05/02 05:01:37;;;;;;;12.97;7.03;;;;;;;;;;4989346;28;20195;-71
2023/05/02 05:04:06;;;;;;;12.63;6.87;;;;;;;;;;5009569;28;20318;-71
2023/05/02 05:06:38;;;;;;;17.33;6.87;;;;;;;;;;5024571;28;20199;-71
2023/05/02 05:09:05;;;;;;;13.83;6.77;;;;;;;;;;5001084;28;20205;-71
2023/05/02 05:11:34;;;;;;;14.90;6.20;;;;;;;;;;5024218;28;20253;-69
2023/05/02 05:14:02;;;;;;;14.90;5.40;;;;;;;;;;4975400;28;20235;-70
2023/05/02 05:16:31;;;;;;;9.63;5.00;;;;;;;;;;4988826;28;20611;-69
2023/05/02 05:18:58;;;;;;;9.67;5.23;;;;;;;;;;5007075;28;20199;-72
2023/05/02 05:21:34;;;;;;;9.57;4.93;;;;;;;;;;5010916;28;20654;-68
2023/05/02 05:24:01;;;;;;;14.00;5.47;;;;;;;;;;4993831;28;20210;-70
2023/05/02 05:26:28;;;;;;;9.30;5.00;;;;;;;;;;5008981;28;20682;-71
2023/05/02 05:28:56;;;;;;;10.37;4.90;;;;;;;;;;5009990;28;20216;-72
2023/05/02 05:31:26;;;;;;;12.53;5.37;;;;;;;;;;4990276;28;20188;-69
2023/05/02 05:33:56;;;;;;;8.13;4.47;;;;;;;;;;4998722;28;20222;-70
2023/05/02 05:36:24;;;;;;;10.00;5.50;;;;;;;;;;5009386;28;20195;-71
2023/05/02 05:38:51;;;;;;;9.47;4.67;;;;;;;;;;5026494;28;20626;-71
2023/05/02 05:41:19;;;;;;;9.53;5.00;;;;;;;;;;4996021;28;20191;-70
2023/05/02 05:43:50;;;;;;;10.63;4.50;;;;;;;;;;5010432;28;20617;-69
2023/05/02 05:46:17;;;;;;;12.80;4.67;;;;;;;;;;5028693;28;20698;-69
2023/05/02 05:48:44;;;;;;;9.90;4.60;;;;;;;;;;5026875;28;20643;-68
2023/05/02 05:51:11;;;;;;;11.47;4.73;;;;;;;;;;5029447;28;20188;-69
2023/05/02 05:53:37;;;;;;;10.47;5.03;;;;;;;;;;5027550;28;20194;-69
2023/05/02 05:56:08;;;;;;;8.13;4.57;;;;;;;;;;5010059;28;20208;-69
2023/05/02 05:58:37;;;;;;;11.23;5.17;;;;;;;;;;5010604;28;20199;-69
2023/05/02 06:01:05;;;;;;;15.07;5.00;;;;;;;;;;5005375;28;20235;-70
2023/05/02 06:03:33;;;;;;;13.10;5.17;;;;;;;;;;4992920;28;20211;-70
2023/05/02 06:06:00;;;;;;;10.50;4.83;;;;;;;;;;5011810;28;20209;-69
2023/05/02 06:08:27;;;;;;;10.43;4.70;;;;;;;;;;5026878;28;20202;-70
2023/05/02 06:10:54;;;;;;;9.90;4.60;;;;;;;;;;5023183;28;20191;-67
2023/05/02 06:13:22;;;;;;;8.20;4.87;;;;;;;;;;4996292;28;20203;-67
2023/05/02 06:15:49;;;;;;;11.47;4.33;;;;;;;;;;5005789;28;20189;-67
2023/05/02 06:18:16;;;;;;;9.57;4.30;;;;;;;;;;5011881;28;20223;-67
2023/05/02 06:20:43;;;;;;;8.30;4.63;;;;;;;;;;5030837;28;20591;-67
2023/05/02 06:23:09;;;;;;;8.83;4.47;;;;;;;;;;5028480;28;20310;-67
2023/05/02 06:25:36;;;;;;;12.70;5.33;;;;;;;;;;5011854;28;20207;-68
2023/05/02 06:28:03;;;;;;;11.17;4.80;;;;;;;;;;5030169;28;20191;-67
2023/05/02 06:30:30;;;;;;;10.17;5.13;;;;;;;;;;5014104;28;20195;-71
2023/05/02 06:32:57;;;;;;;8.93;4.70;;;;;;;;;;5019741;28;20684;-68
2023/05/02 06:35:23;;;;;;;12.97;4.47;;;;;;;;;;5005933;28;20200;-68
2023/05/02 06:37:50;;;;;;;10.97;4.60;;;;;;;;;;5005762;28;20189;-70
2023/05/02 06:40:17;;;;;;;13.47;4.97;;;;;;;;;;5002893;28;20205;-68
2023/05/02 06:42:44;;;;;;;9.67;4.73;;;;;;;;;;5021150;28;20290;-70
2023/05/02 06:45:12;;;;;;;13.07;5.27;;;;;;;;;;5006866;28;20253;-69
2023/05/02 06:47:40;;;;;;;11.13;4.77;;;;;;;;;;5022769;28;20207;-70
2023/05/02 06:50:07;;;;;;;8.07;4.60;;;;;;;;;;5024234;28;20299;-69
2023/05/02 06:52:38;;;;;;;9.40;5.03;;;;;;;;;;5007599;28;20196;-70
2023/05/02 06:55:05;;;;;;;10.10;4.67;;;;;;;;;;4988072;28;20196;-69
2023/05/02 06:57:32;;;;;;;11.03;5.10;;;;;;;;;;5023456;28;20183;-69
2023/05/02 06:59:59;;;;;;;10.07;5.10;;;;;;;;;;5023696;28;20275;-70
2023/05/02 07:02:28;;;;;;;8.67;4.93;;;;;;;;;;4999346;28;20199;-69
2023/05/02 07:04:59;;;;;;;12.60;5.33;;;;;;;;;;4991169;28;20210;-69
2023/05/02 07:07:26;;;;;;;18.57;5.70;;;;;;;;;;5028353;28;20215;-71
2023/05/02 07:09:52;;;;;;;22.43;5.97;;;;;;;;;;5025456;28;20266;-70
2023/05/02 07:12:20;;;;;;;10.77;5.10;;;;;;;;;;5026253;28;20200;-69
2023/05/02 07:14:49;;;;;;;14.47;5.47;;;;;;;;;;4993394;28;20692;-70
2023/05/02 07:17:16;;;;;;;9.37;5.30;;;;;;;;;;5026371;28;20265;-70
2023/05/02 07:19:42;;;;;;;9.03;5.10;;;;;;;;;;5007588;28;20192;-71
2023/05/02 07:22:11;;;;;;;11.23;4.60;;;;;;;;;;5009257;28;20606;-70
2023/05/02 07:24:40;;;;;;;11.20;4.53;;;;;;;;;;5024943;28;20187;-70
2023/05/02 07:27:08;;;;;;;9.93;4.30;;;;;;;;;;5009730;28;20314;-70
2023/05/02 07:29:35;;;;;;;8.03;3.97;;;;;;;;;;5025589;28;20289;-70
2023/05/02 07:32:02;;;;;;;8.70;4.53;;;;;;;;;;5026189;28;20209;-70
2023/05/02 07:34:29;;;;;;;9.47;4.83;;;;;;;;;;5027781;28;20203;-72
2023/05/02 07:36:56;;;;;;;9.63;4.93;;;;;;;;;;5009807;28;20614;-72
2023/05/02 07:39:23;;;;;;;12.00;5.33;;;;;;;;;;5028006;28;20192;-72
2023/05/02 07:41:51;;;;;;;10.13;4.90;;;;;;;;;;5028758;28;20193;-72
2023/05/02 07:44:18;;;;;;;11.37;5.00;;;;;;;;;;5031433;28;20198;-73
2023/05/02 07:46:46;;;;;;;10.33;4.87;;;;;;;;;;4995521;28;20238;-72
2023/05/02 07:49:13;;;;;;;12.73;5.33;;;;;;;;;;5013828;28;20214;-72
2023/05/02 07:51:41;;;;;;;7.43;2.73;;;;;;;;;;5020637;28;20286;-68
2023/05/02 07:54:18;;;;;;;5.93;3.03;;;;;;;;;;5028471;28;20398;-68
2023/05/02 07:56:46;;;;;;;6.33;3.00;;;;;;;;;;5018933;28;20549;-67
2023/05/02 07:59:13;;;;;;;5.70;3.10;;;;;;;;;;5027993;28;20282;-68
2023/05/02 08:01:40;;;;;;;7.80;2.90;;;;;;;;;;5028507;28;20294;-69
2023/05/02 08:04:09;;;;;;;6.93;3.30;;;;;;;;;;5009477;28;20286;-70
2023/05/02 08:06:36;;;;;;;5.43;2.70;;;;;;;;;;5028643;28;20310;-69
2023/05/02 08:09:03;;;;;;;5.67;2.40;;;;;;;;;;5010482;28;20294;-69
2023/05/02 08:11:32;;;;;;;4.23;2.40;;;;;;;;;;5022910;28;20191;-70
2023/05/02 08:13:59;;;;;;;4.37;2.40;;;;;;;;;;5024242;28;20195;-70
2023/05/02 08:16:26;;;;;;;6.13;2.23;;;;;;;;;;5010725;28;20215;-69
2023/05/02 08:18:55;;;;;;;6.67;2.50;;;;;;;;;;5028021;28;20210;-69
2023/05/02 08:21:23;;;;;;;4.73;1.90;;;;;;;;;;5028005;28;20196;-69
2023/05/02 08:23:49;;;;;;;3.43;1.80;;;;;;;;;;5011260;28;20203;-70
2023/05/02 08:26:17;;;;;;;5.43;1.93;;;;;;;;;;5016601;28;20223;-71
2023/05/02 08:28:44;;;;;;;4.03;2.07;;;;;;;;;;5017359;28;20385;-71
2023/05/02 08:31:11;;;;;;;4.20;2.20;;;;;;;;;;5028095;28;20200;-67
2023/05/02 08:33:38;;;;;;;2.97;1.77;;;;;;;;;;5010165;28;20310;-71
2023/05/02 08:36:14;;;;;;;4.43;2.03;;;;;;;;;;5027407;28;20222;-69
2023/05/02 08:38:42;;;;;;;4.53;2.33;;;;;;;;;;5028426;28;20305;-70
2023/05/02 08:41:09;;;;;;;6.90;2.80;;;;;;;;;;5008310;28;20656;-68
2023/05/02 08:43:39;;;;;;;4.27;2.60;;;;;;;;;;5011154;28;20203;-69
2023/05/02 08:46:08;;;;;;;5.23;2.13;;;;;;;;;;5027966;28;20621;-70
2023/05/02 08:48:35;;;;;;;3.23;1.97;;;;;;;;;;5002392;28;20542;-70
2023/05/02 08:51:03;;;;;;;3.40;2.03;;;;;;;;;;5009480;28;20199;-70
2023/05/02 08:53:31;;;;;;;5.47;2.20;;;;;;;;;;5027753;28;20198;-70
2023/05/02 08:55:59;;;;;;;3.40;1.70;;;;;;;;;;5028078;28;20261;-69
2023/05/02 08:58:26;;;;;;;5.17;2.13;;;;;;;;;;5010447;28;20625;-68
2023/05/02 09:00:54;;;;;;;4.07;1.63;;;;;;;;;;5009230;28;20184;-72
2023/05/02 09:03:31;;;;;;;6.13;1.80;;;;;;;;;;5010405;28;20188;-69
2023/05/02 09:06:02;;;;;;;2.33;1.70;;;;;;;;;;5025996;28;20239;-69
2023/05/02 09:08:29;;;;;;;3.83;2.30;;;;;;;;;;5027687;28;20657;-70
2023/05/02 09:10:56;;;;;;;5.53;1.83;;;;;;;;;;4992627;28;20196;-68
2023/05/02 09:13:29;;;;;;;4.77;2.10;;;;;;;;;;5027436;28;20277;-69
2023/05/02 09:15:58;;;;;;;5.07;2.40;;;;;;;;;;5027737;28;20191;-69
2023/05/02 09:18:29;;;;;;;3.97;2.30;;;;;;;;;;4992641;28;20228;-69
2023/05/02 09:21:00;;;;;;;5.47;2.27;;;;;;;;;;5006108;28;20187;-69
2023/05/02 09:23:36;;;;;;;5.87;2.53;;;;;;;;;;5007654;28;20234;-71
2023/05/02 09:26:21;;;;;;;5.23;3.10;;;;;;;;;;5007184;28;20214;-68
2023/05/02 09:28:49;;;;;;;7.57;3.13;;;;;;;;;;4989834;28;20227;-71
2023/05/02 09:31:17;;;;;;;5.50;2.83;;;;;;;;;;4989625;28;20323;-71
2023/05/02 09:34:07;;;;;;;5.33;3.23;;;;;;;;;;4992251;28;20219;-71
2023/05/02 09:36:38;;;;;;;4.50;3.33;;;;;;;;;;4988154;28;20189;-71
2023/05/02 09:39:10;;;;;;;8.53;3.93;;;;;;;;;;4980779;28;20195;-71
2023/05/02 09:41:44;;;;;;;7.87;4.37;;;;;;;;;;4993431;28;20759;-68
2023/05/02 09:44:12;;;;;;;7.43;4.47;;;;;;;;;;4995524;28;20598;-70
2023/05/02 09:46:42;;;;;;;7.60;5.17;;;;;;;;;;4990842;28;20211;-70
2023/05/02 09:49:09;;;;;;;10.77;5.43;;;;;;;;;;4989508;28;20275;-70
2023/05/02 09:51:36;;;;;;;10.87;6.10;;;;;;;;;;4971858;28;20247;-71
2023/05/02 09:54:03;;;;;;;10.27;6.33;;;;;;;;;;4979812;28;20670;-71
2023/05/02 09:56:30;;;;;;;8.30;6.37;;;;;;;;;;4974839;28;20791;-69
2023/05/02 09:59:13;;;;;;;9.20;5.97;;;;;;;;;;4975721;28;20204;-72
2023/05/02 10:01:43;;;;;;;10.13;6.27;;;;;;;;;;4989351;28;20200;-68
2023/05/02 10:04:13;;;;;;;9.13;6.33;;;;;;;;;;5006892;28;20196;-70
2023/05/02 10:06:39;;;;;;;7.90;6.03;;;;;;;;;;4973346;28;20314;-69
2023/05/02 10:09:07;;;;;;;9.40;6.40;;;;;;;;;;5003993;28;20200;-68
2023/05/02 10:11:33;;;;;;;9.77;6.67;;;;;;;;;;4989208;28;20218;-70
2023/05/02 10:14:01;;;;;;;13.10;6.83;;;;;;;;;;4989026;28;20192;-71
2023/05/02 10:16:28;;;;;;;9.50;6.17;;;;;;;;;;5007903;28;20279;-69
2023/05/02 10:19:02;;;;;;;9.90;6.07;;;;;;;;;;5026501;28;20756;-69
2023/05/02 10:21:29;;;;;;;9.87;6.53;;;;;;;;;;5007837;28;20226;-68
2023/05/02 10:23:56;;;;;;;8.30;6.10;;;;;;;;;;5008998;28;20211;-70
2023/05/02 10:26:23;;;;;;;9.37;5.93;;;;;;;;;;5007727;28;20853;-71
2023/05/02 10:28:50;;;;;;;8.83;5.50;;;;;;;;;;4976303;28;20218;-71
2023/05/02 10:31:18;;;;;;;6.90;5.03;;;;;;;;;;5024910;28;20226;-71
2023/05/02 10:33:45;;;;;;;9.30;5.60;;;;;;;;;;5026898;28;20274;-68
2023/05/02 10:36:14;;;;;;;7.73;5.57;;;;;;;;;;5026614;28;20198;-70
2023/05/02 10:38:41;;;;;;;10.23;6.23;;;;;;;;;;5008816;28;20541;-70
2023/05/02 10:41:12;;;;;;;8.07;5.80;;;;;;;;;;4991823;28;20253;-69
2023/05/02 10:43:42;;;;;;;10.80;5.70;;;;;;;;;;5026308;28;20191;-68
2023/05/02 10:46:28;;;;;;;8.73;5.80;;;;;;;;;;5003315;28;20207;-70
2023/05/02 10:49:11;;;;;;;8.57;5.60;;;;;;;;;;5020880;28;20680;-70
2023/05/02 10:51:39;;;;;;;8.37;5.43;;;;;;;;;;4985470;28;20196;-71
2023/05/02 10:54:14;;;;;;;8.70;6.27;;;;;;;;;;4994526;28;20201;-68
2023/05/02 10:57:04;;;;;;;8.57;6.20;;;;;;;;;;5009660;28;20245;-69
2023/05/02 10:59:41;;;;;;;10.13;5.80;;;;;;;;;;5019036;28;20241;-68
2023/05/02 11:02:22;;;;;;;10.17;5.50;;;;;;;;;;5016785;28;20646;-68
2023/05/02 11:05:02;;;;;;;7.73;5.47;;;;;;;;;;5016696;28;20681;-68
2023/05/02 11:07:31;;;;;;;10.53;5.67;;;;;;;;;;5024396;28;20273;-69
2023/05/02 11:10:16;;;;;;;9.43;6.87;;;;;;;;;;5006703;28;20214;-68
2023/05/02 11:12:46;;;;;;;11.53;6.97;;;;;;;;;;5025644;28;20203;-70
2023/05/02 11:15:37;;;;;;;10.73;7.20;;;;;;;;;;5008657;28;20223;-68
2023/05/02 11:18:06;;;;;;;11.03;7.70;;;;;;;;;;5024917;28;20573;-68
2023/05/02 11:20:36;;;;;;;11.17;7.70;;;;;;;;;;5023649;28;20278;-69
2023/05/02 11:23:24;;;;;;;11.27;7.20;;;;;;;;;;5007743;28;20210;-69
2023/05/02 11:25:54;;;;;;;12.20;6.97;;;;;;;;;;5023200;28;20284;-67
2023/05/02 11:28:37;;;;;;;12.83;7.53;;;;;;;;;;5013802;28;20253;-70
2023/05/02 11:31:09;;;;;;;11.83;6.70;;;;;;;;;;5007725;28;20613;-69
2023/05/02 11:33:35;;;;;;;6.70;4.87;;;;;;;;;;5025003;28;20253;-69
2023/05/02 11:36:03;;;;;;;5.57;3.60;;;;;;;;;;5024893;28;20199;-70
2023/05/02 11:38:34;;;;;;;5.83;3.70;;;;;;;;;;5008209;28;20269;-69
2023/05/02 11:41:03;;;;;;;6.07;3.63;;;;;;;;;;5007137;28;20222;-67
2023/05/02 11:43:30;;;;;;;5.93;3.30;;;;;;;;;;5025369;28;20195;-68
2023/05/02 11:45:58;;;;;;;5.17;3.50;;;;;;;;;;5025829;28;20200;-67
2023/05/02 11:48:28;;;;;;;7.57;4.00;;;;;;;;;;5024658;28;20332;-70
2023/05/02 11:50:56;;;;;;;5.30;3.80;;;;;;;;;;5008752;28;20199;-70
2023/05/02 11:53:24;;;;;;;4.23;2.87;;;;;;;;;;5016543;28;20202;-68
2023/05/02 11:55:56;;;;;;;3.47;2.93;;;;;;;;;;5023470;28;20196;-67
2023/05/02 11:58:24;;;;;;;4.43;2.63;;;;;;;;;;5025197;28;20629;-67
2023/05/02 12:00:51;;;;;;;5.23;3.30;;;;;;;;;;5024839;28;20187;-69
2023/05/02 12:03:28;;;;;;;6.70;3.30;;;;;;;;;;5023937;28;20532;-69
2023/05/02 12:05:57;;;;;;;5.30;3.20;;;;;;;;;;5025740;28;20187;-68
2023/05/02 12:08:26;;;;;;;5.80;3.60;;;;;;;;;;5025506;28;20566;-69
2023/05/02 12:10:54;;;;;;;5.50;3.60;;;;;;;;;;5024801;28;20200;-69
2023/05/02 12:13:22;;;;;;;5.47;3.97;;;;;;;;;;5022012;28;20196;-69
2023/05/02 12:15:50;;;;;;;4.93;3.97;;;;;;;;;;5008459;28;20199;-69
2023/05/02 12:18:22;;;;;;;6.00;4.03;;;;;;;;;;5007885;28;20228;-69
2023/05/02 12:20:50;;;;;;;7.27;4.60;;;;;;;;;;5025494;28;20184;-69
2023/05/02 12:23:18;;;;;;;8.33;5.53;;;;;;;;;;5006934;28;20714;-70
2023/05/02 12:25:45;;;;;;;8.13;5.37;;;;;;;;;;5007870;28;20192;-69
2023/05/02 12:28:12;;;;;;;9.80;4.83;;;;;;;;;;5024483;28;20328;-67
2023/05/02 12:30:40;;;;;;;9.47;5.27;;;;;;;;;;5027348;28;20213;-68
2023/05/02 12:33:07;;;;;;;10.87;5.07;;;;;;;;;;5028597;28;20727;-70
2023/05/02 12:35:34;;;;;;;7.23;4.60;;;;;;;;;;5008964;28;20197;-67
2023/05/02 12:38:08;;;;;;;9.73;4.60;;;;;;;;;;5023854;28;20217;-71
2023/05/02 12:40:36;;;;;;;9.27;5.03;;;;;;;;;;5030326;28;20187;-69
2023/05/02 12:43:05;;;;;;;11.73;5.80;;;;;;;;;;5031306;28;20227;-69
2023/05/02 12:45:33;;;;;;;11.37;6.00;;;;;;;;;;5011672;28;20199;-69
2023/05/02 12:48:01;;;;;;;9.87;5.47;;;;;;;;;;5010868;28;20614;-70
2023/05/02 12:50:35;;;;;;;10.13;4.80;;;;;;;;;;4993153;28;20207;-70
2023/05/02 12:53:02;;;;;;;7.23;4.53;;;;;;;;;;4994883;28;20252;-70
2023/05/02 12:55:33;;;;;;;10.53;5.23;;;;;;;;;;5028245;28;20191;-69
2023/05/02 12:58:03;;;;;;;10.37;4.40;;;;;;;;;;5025020;28;20196;-70
2023/05/02 13:00:30;;;;;;;9.00;4.37;;;;;;;;;;5004757;28;20768;-71
2023/05/02 13:02:58;;;;;;;6.63;3.60;;;;;;;;;;5008900;28;20234;-73
2023/05/02 13:05:25;;;;;;;8.80;4.70;;;;;;;;;;5006355;28;20202;-70
2023/05/02 13:07:55;;;;;;;5.93;3.70;;;;;;;;;;5014622;28;20256;-72
2023/05/02 13:10:23;;;;;;;7.93;3.93;;;;;;;;;;5026631;28;20187;-74
2023/05/02 13:12:50;;;;;;;9.13;3.53;;;;;;;;;;5027055;28;20197;-73
2023/05/02 13:15:18;;;;;;;5.53;3.50;;;;;;;;;;5026724;28;20195;-73
2023/05/02 13:17:47;;;;;;;6.00;4.23;;;;;;;;;;5010667;28;20232;-73
2023/05/02 13:20:14;;;;;;;6.13;3.23;;;;;;;;;;5025813;28;20554;-73
2023/05/02 13:22:42;;;;;;;6.10;3.00;;;;;;;;;;5025735;28;20199;-73
2023/05/02 13:25:09;;;;;;;6.63;2.43;;;;;;;;;;5006030;28;20203;-72
2023/05/02 13:27:36;;;;;;;5.53;3.23;;;;;;;;;;5012245;28;20219;-73
2023/05/02 13:30:03;;;;;;;6.87;2.60;;;;;;;;;;5023647;28;20202;-72
2023/05/02 13:32:34;;;;;;;6.93;2.77;;;;;;;;;;5019649;28;20741;-70
2023/05/02 13:35:02;;;;;;;8.73;3.57;;;;;;;;;;4989639;28;20254;-73
2023/05/02 13:37:36;;;;;;;8.73;4.63;;;;;;;;;;5041300;28;20661;-72
2023/05/02 13:40:28;;;;;;;7.53;2.50;;;;;;;;;;5031906;28;20176;-71
2023/05/02 13:42:56;;;;;;;6.43;2.37;;;;;;;;;;5018002;28;20280;-71
2023/05/02 13:45:29;;;;;;;6.30;2.50;;;;;;;;;;5020025;28;20210;-72
2023/05/02 13:47:58;;;;;;;5.53;2.10;;;;;;;;;;5015721;28;20263;-72
2023/05/02 13:50:29;;;;;;;6.13;2.30;;;;;;;;;;5008690;28;20674;-71
2023/05/02 13:52:59;;;;;;;6.37;2.40;;;;;;;;;;5031165;28;20199;-72
2023/05/02 13:55:30;;;;;;;8.03;3.60;;;;;;;;;;5013731;28;20203;-72
2023/05/02 13:58:00;;;;;;;3.70;2.07;;;;;;;;;;4996614;28;20192;-71
2023/05/02 14:00:33;;;;;;;4.77;2.50;;;;;;;;;;5012922;28;20675;-71
2023/05/02 14:03:09;;;;;;;5.40;2.10;;;;;;;;;;5007654;28;20203;-69
2023/05/02 14:05:54;;;;;;;4.33;1.90;;;;;;;;;;5038808;28;20221;-71
2023/05/02 14:08:37;;;;;;;5.87;1.77;;;;;;;;;;5033679;28;20218;-71
2023/05/02 14:11:13;;;;;;;3.70;1.40;;;;;;;;;;4997928;28;20685;-69
2023/05/02 14:14:04;;;;;;;3.40;1.47;;;;;;;;;;5033956;28;20901;-71
2023/05/02 14:17:17;;;;;;;3.30;1.63;;;;;;;;;;5010825;28;20574;-71
2023/05/02 14:24:05;;;;;;;5.13;1.50;;;;;;;;;;5031844;28;20200;-71
2023/05/02 14:31:02;;;;;;;2.47;1.30;;;;;;;;;;4993060;28;20793;-71
2023/05/02 14:34:30;;;;;;;2.57;1.30;;;;;;;;;;5012831;28;20183;-70
2023/05/02 14:37:43;;;;;;;3.63;0.97;;;;;;;;;;5030962;28;20238;-70
2023/05/02 14:41:04;;;;;;;;;;;;;;;;;;;;;
2023/05/02 14:44:23;;;;;;;1.83;0.80;;;;;;;;;;5034824;28;20194;-69
2023/05/02 14:47:56;;;;;;;2.23;1.13;;;;;;;;;;5009843;28;20206;-70
2023/05/02 14:50:45;;;;;;;1.77;0.90;;;;;;;;;;5012376;28;20203;-72
2023/05/02 14:54:48;;;;;;;;;;;;;;;;;;;;;
2023/05/02 14:58:19;;;;;;;;;;;;;;;;;;;;;
2023/05/02 15:05:10;;;;;;;;;;;;;;;;;;;;;
2023/05/02 15:08:26;;;;;;;;;;;;;;;;;;;;;
2023/05/02 15:13:03;;;;;;;;;;;;;;;;;;;;;
2023/05/02 15:16:25;;;;;;;3.03;1.30;;;;;;;;;;5021478;28;20343;-70
2023/05/02 15:19:51;;;;;;;3.27;0.97;;;;;;;;;;5015562;28;20706;-70
2023/05/02 15:35:36;;;;;;;4.27;1.00;;;;;;;;;;4926782;29;20193;-68
2023/05/02 15:46:35;;;;;;;3.70;1.00;;;;;;;;;;4836236;29;20601;-69
2023/05/02 15:49:57;;;;;;;;;;;;;;;;;;;;;
2023/05/02 16:01:04;;;;;;;8.60;4.43;;;;;;;;;;4895009;29;20699;-68
2023/05/02 16:08:17;;;;;;;3.97;2.00;;;;;;;;;;4851290;29;20241;-68
2023/05/02 16:15:33;;;;;;;;;;;;;;;;;;;;;
2023/05/02 16:19:11;;;;;;;2.63;1.20;;;;;;;;;;4930182;28;20275;-67
2023/05/02 16:23:02;;;;;;;;;;;;;;;;;;;;;
2023/05/02 16:30:17;;;;;;;3.00;1.47;;;;;;;;;;5021091;28;20230;-67
2023/05/02 16:33:41;;;;;;;2.43;1.00;;;;;;;;;;4966089;28;20262;-68
2023/05/02 16:37:06;;;;;;;;;;;;;;;;;;;;;
2023/05/02 16:44:38;;;;;;;2.67;1.10;;;;;;;;;;5027153;28;20245;-71
2023/05/02 16:47:55;;;;;;;3.30;1.37;;;;;;;;;;4961324;28;20248;-69
2023/05/02 16:50:24;;;;;;;2.73;1.20;;;;;;;;;;4970078;28;20272;-68
2023/05/02 16:52:51;;;;;;;1.57;1.17;;;;;;;;;;4956123;28;20193;-68
2023/05/02 16:55:18;;;;;;;5.50;2.37;;;;;;;;;;5009357;28;20202;-67
2023/05/02 16:57:46;;;;;;;3.00;1.30;;;;;;;;;;5016300;28;20251;-68